createdAt,value
2022-10-02T00:02:02.719Z,100555.44
2022-10-02T00:04:35.285Z,100550.00
2022-10-02T00:07:08.040Z,100558.94
2022-10-02T00:09:42.820Z,100565.91
2022-10-02T00:12:15.318Z,100564.59
2022-10-02T00:14:47.298Z,100566.72
2022-10-02T00:17:20.367Z,100561.88
2022-10-02T00:19:48.103Z,100562.78
2022-10-02T00:22:27.107Z,100574.66
2022-10-02T00:25:04.300Z,100569.22
2022-10-02T00:27:45.025Z,100579.66
2022-10-02T00:30:16.206Z,100579.00
2022-10-02T00:32:56.307Z,100583.00
2022-10-02T00:36:08.886Z,100579.66
2022-10-02T00:38:49.360Z,100569.75
2022-10-02T00:41:45.577Z,100575.75
2022-10-02T00:44:34.085Z,100571.31
2022-10-02T00:47:11.169Z,100581.31
2022-10-02T00:50:05.296Z,100578.09
2022-10-02T00:52:48.518Z,100590.19
2022-10-02T00:55:32.864Z,100580.72
2022-10-02T00:58:18.529Z,100560.78
2022-10-02T01:00:59.139Z,100558.94
2022-10-02T01:03:30.763Z,100575.91
2022-10-02T01:05:58.611Z,100570.16
2022-10-02T01:08:27.069Z,100566.25
2022-10-02T01:10:55.435Z,100552.00
2022-10-02T01:13:23.473Z,100551.94
2022-10-02T01:15:55.037Z,100563.59
2022-10-02T01:18:23.398Z,100564.19
2022-10-02T01:20:54.396Z,100550.44
2022-10-02T01:23:31.530Z,100553.16
2022-10-02T01:26:00.826Z,100554.88
2022-10-02T01:28:29.086Z,100557.69
2022-10-02T01:31:02.699Z,100561.22
2022-10-02T01:33:31.654Z,100575.56
2022-10-02T01:35:59.552Z,100587.69
2022-10-02T01:38:29.238Z,100586.94
2022-10-02T01:40:56.996Z,100587.56
2022-10-02T01:43:30.710Z,100589.69
2022-10-02T01:46:09.019Z,100584.75
2022-10-02T01:48:45.945Z,100581.53
2022-10-02T01:51:37.842Z,100569.59
2022-10-02T01:54:17.094Z,100574.22
2022-10-02T01:56:55.425Z,100573.31
2022-10-02T01:59:36.533Z,100575.66
2022-10-02T02:02:13.829Z,100581.09
2022-10-02T02:04:49.675Z,100581.31
2022-10-02T02:07:28.216Z,100584.53
2022-10-02T02:10:02.351Z,100583.53
2022-10-02T02:12:40.330Z,100580.78
2022-10-02T02:15:14.284Z,100570.56
2022-10-02T02:17:51.973Z,100586.84
2022-10-02T02:20:27.025Z,100575.53
2022-10-02T02:22:57.614Z,100576.56
2022-10-02T02:25:29.141Z,100564.34
2022-10-02T02:27:59.807Z,100569.72
2022-10-02T02:30:31.998Z,100565.34
2022-10-02T02:33:05.253Z,100572.19
2022-10-02T02:35:37.116Z,100564.22
2022-10-02T02:38:07.776Z,100563.19
2022-10-02T02:40:40.572Z,100570.06
2022-10-02T02:43:12.869Z,100565.19
2022-10-02T02:45:48.194Z,100567.91
2022-10-02T02:48:22.218Z,100572.69
2022-10-02T02:50:52.955Z,100586.31
2022-10-02T02:53:25.529Z,100579.66
2022-10-02T02:55:56.813Z,100578.25
2022-10-02T02:58:29.462Z,100581.53
2022-10-02T03:00:58.969Z,100573.75
2022-10-02T03:03:27.951Z,100566.88
2022-10-02T03:06:04.455Z,100577.31
2022-10-02T03:08:35.246Z,100588.13
2022-10-02T03:11:12.946Z,100588.97
2022-10-02T03:13:59.060Z,100590.03
2022-10-02T03:16:42.472Z,100579.97
2022-10-02T03:19:28.450Z,100574.06
2022-10-02T03:22:05.558Z,100572.41
2022-10-02T03:24:41.374Z,100565.72
2022-10-02T03:27:13.300Z,100565.41
2022-10-02T03:29:46.362Z,100555.00
2022-10-02T03:32:19.456Z,100558.16
2022-10-02T03:34:49.462Z,100555.44
2022-10-02T03:37:18.746Z,100544.75
2022-10-02T03:39:46.891Z,100550.16
2022-10-02T03:42:16.232Z,100544.69
2022-10-02T03:44:44.821Z,100559.38
2022-10-02T03:47:12.672Z,100558.84
2022-10-02T03:49:41.776Z,100565.13
2022-10-02T03:52:16.299Z,100578.66
2022-10-02T03:54:44.990Z,100581.28
2022-10-02T03:57:18.976Z,100584.94
2022-10-02T03:59:51.807Z,100588.72
2022-10-02T04:02:32.021Z,100590.75
2022-10-02T04:05:09.288Z,100583.06
2022-10-02T04:07:41.161Z,100581.84
2022-10-02T04:10:26.887Z,100582.44
2022-10-02T04:13:02.592Z,100559.69
2022-10-02T04:15:36.411Z,100567.00
2022-10-02T04:18:09.003Z,100574.91
2022-10-02T04:20:44.759Z,100575.50
2022-10-02T04:23:19.067Z,100574.69
2022-10-02T04:25:53.203Z,100571.13
2022-10-02T04:28:25.682Z,100579.31
2022-10-02T04:30:54.554Z,100579.91
2022-10-02T04:33:25.283Z,100577.56
2022-10-02T04:36:09.477Z,100580.88
2022-10-02T04:38:48.375Z,100576.63
2022-10-02T04:41:48.289Z,100583.25
2022-10-02T04:44:27.743Z,100589.53
2022-10-02T04:47:09.000Z,100588.91
2022-10-02T04:50:13.270Z,100588.91
2022-10-02T04:53:03.677Z,100591.66
2022-10-02T04:55:51.186Z,100595.88
2022-10-02T04:58:47.696Z,100586.06
2022-10-02T05:01:28.406Z,100590.44
2022-10-02T05:04:20.234Z,100597.56
2022-10-02T05:07:06.509Z,100588.09
2022-10-02T05:09:43.275Z,100580.34
2022-10-02T05:12:34.714Z,100583.91
2022-10-02T05:15:12.025Z,100578.69
2022-10-02T05:17:58.575Z,100572.72
2022-10-02T05:20:45.449Z,100570.94
2022-10-02T05:23:27.866Z,100579.56
2022-10-02T05:26:15.114Z,100589.66
2022-10-02T05:29:09.834Z,100576.91
2022-10-02T05:31:52.178Z,100586.41
2022-10-02T05:34:37.585Z,100581.94
2022-10-02T05:37:27.176Z,100587.59
2022-10-02T05:40:02.779Z,100591.59
2022-10-02T05:42:40.020Z,100581.94
2022-10-02T05:45:20.322Z,100581.19
2022-10-02T05:47:50.510Z,100602.97
2022-10-02T05:50:21.136Z,100606.97
2022-10-02T05:52:58.252Z,100606.06
2022-10-02T05:55:32.510Z,100611.59
2022-10-02T05:58:07.414Z,100611.72
2022-10-02T06:00:43.942Z,100600.69
2022-10-02T06:03:18.476Z,100608.44
2022-10-02T06:05:55.215Z,100607.66
2022-10-02T06:08:31.412Z,100616.13
2022-10-02T06:11:06.364Z,100613.41
2022-10-02T06:13:41.663Z,100607.72
2022-10-02T06:16:15.411Z,100604.16
2022-10-02T06:18:49.041Z,100606.28
2022-10-02T06:21:26.731Z,100599.19
2022-10-02T06:23:58.994Z,100590.03
2022-10-02T06:26:34.410Z,100593.81
2022-10-02T06:29:08.269Z,100598.81
2022-10-02T06:31:42.902Z,100597.00
2022-10-02T06:34:13.483Z,100605.53
2022-10-02T06:37:04.690Z,100613.03
2022-10-02T06:39:55.405Z,100600.47
2022-10-02T06:42:34.045Z,100584.66
2022-10-02T06:45:11.923Z,100617.28
2022-10-02T06:47:58.377Z,100614.94
2022-10-02T06:50:37.992Z,100616.81
2022-10-02T06:53:18.542Z,100619.56
2022-10-02T06:55:51.854Z,100616.13
2022-10-02T06:58:53.028Z,100624.16
2022-10-02T07:01:35.343Z,100619.91
2022-10-02T07:04:17.760Z,100632.03
2022-10-02T07:06:58.749Z,100629.09
2022-10-02T07:09:56.369Z,100623.63
2022-10-02T07:12:50.557Z,100624.47
2022-10-02T07:15:45.330Z,100633.09
2022-10-02T07:18:22.924Z,100625.88
2022-10-02T07:21:01.002Z,100628.25
2022-10-02T07:23:44.167Z,100629.63
2022-10-02T07:26:34.827Z,100629.19
2022-10-02T07:29:18.298Z,100626.19
2022-10-02T07:31:55.422Z,100634.97
2022-10-02T07:34:36.397Z,100628.47
2022-10-02T07:37:18.556Z,100629.00
2022-10-02T07:39:57.890Z,100634.91
2022-10-02T07:42:41.600Z,100633.94
2022-10-02T07:45:27.791Z,100639.38
2022-10-02T07:48:27.666Z,100638.94
2022-10-02T07:51:40.028Z,100639.59
2022-10-02T07:54:32.744Z,100643.75
2022-10-02T07:57:09.663Z,100637.19
2022-10-02T07:59:43.623Z,100630.16
2022-10-02T08:02:28.363Z,100644.13
2022-10-02T08:05:00.266Z,100649.31
2022-10-02T08:07:30.513Z,100643.84
2022-10-02T08:10:04.319Z,100648.16
2022-10-02T08:12:39.439Z,100644.59
2022-10-02T08:15:15.599Z,100653.97
2022-10-02T08:17:49.849Z,100645.34
2022-10-02T08:20:29.171Z,100655.50
2022-10-02T08:23:05.069Z,100656.69
2022-10-02T08:25:41.095Z,100658.97
2022-10-02T08:28:19.625Z,100660.66
2022-10-02T08:30:47.918Z,100653.13
2022-10-02T08:33:18.885Z,100643.38
2022-10-02T08:35:59.163Z,100652.91
2022-10-02T08:38:37.788Z,100653.53
2022-10-02T08:41:31.920Z,100655.63
2022-10-02T08:44:37.150Z,100650.63
2022-10-02T08:47:33.206Z,100642.81
2022-10-02T08:50:42.980Z,100653.06
2022-10-02T08:53:59.169Z,100662.75
2022-10-02T08:56:40.446Z,100663.56
2022-10-02T08:59:56.034Z,100664.94
2022-10-02T09:02:57.842Z,100671.38
2022-10-02T09:06:03.680Z,100673.09
2022-10-02T09:09:11.679Z,100674.88
2022-10-02T09:12:14.854Z,100673.94
2022-10-02T09:14:58.017Z,100658.13
2022-10-02T09:17:58.897Z,100662.09
2022-10-02T09:20:44.728Z,100665.38
2022-10-02T09:23:52.629Z,100665.53
2022-10-02T09:26:34.517Z,100657.81
2022-10-02T09:29:29.202Z,100661.59
2022-10-02T09:32:35.811Z,100658.63
2022-10-02T09:35:40.458Z,100673.34
2022-10-02T09:38:53.638Z,100663.69
2022-10-02T09:42:00.076Z,100658.19
2022-10-02T09:45:01.532Z,100657.34
2022-10-02T09:48:05.089Z,100655.41
2022-10-02T09:51:05.676Z,100655.53
2022-10-02T09:54:04.875Z,100652.06
2022-10-02T09:57:03.076Z,100657.34
2022-10-02T10:00:12.720Z,100648.22
2022-10-02T10:03:22.707Z,100646.56
2022-10-02T10:06:25.731Z,100642.44
2022-10-02T10:09:17.256Z,100646.47
2022-10-02T10:12:03.274Z,100638.53
2022-10-02T10:15:17.179Z,100644.50
2022-10-02T10:18:39.549Z,100642.34
2022-10-02T10:21:55.672Z,100648.56
2022-10-02T10:24:56.238Z,100649.84
2022-10-02T10:27:57.296Z,100640.16
2022-10-02T10:30:53.706Z,100631.69
2022-10-02T10:33:52.403Z,100642.50
2022-10-02T10:37:03.333Z,100646.75
2022-10-02T10:40:00.184Z,100659.38
2022-10-02T10:43:07.012Z,100672.50
2022-10-02T10:45:49.784Z,100665.84
2022-10-02T10:48:33.890Z,100653.81
2022-10-02T10:51:17.916Z,100655.66
2022-10-02T10:54:11.194Z,100671.47
2022-10-02T10:56:44.709Z,100662.06
2022-10-02T10:59:51.627Z,100668.34
2022-10-02T11:02:53.194Z,100685.50
2022-10-02T11:06:03.666Z,100688.16
2022-10-02T11:08:58.412Z,100669.63
2022-10-02T11:11:38.350Z,100676.09
2022-10-02T11:14:27.479Z,100683.78
2022-10-02T11:17:40.089Z,100691.84
2022-10-02T11:20:35.917Z,100671.19
2022-10-02T11:23:27.439Z,100676.66
2022-10-02T11:26:32.327Z,100674.41
2022-10-02T11:29:41.708Z,100671.81
2022-10-02T11:32:48.334Z,100677.38
2022-10-02T11:35:31.084Z,100682.38
2022-10-02T11:38:35.420Z,100684.28
2022-10-02T11:41:17.556Z,100687.34
2022-10-02T11:44:05.494Z,100696.00
2022-10-02T11:47:14.807Z,100703.81
2022-10-02T11:50:14.083Z,100699.66
2022-10-02T11:53:08.288Z,100695.50
2022-10-02T11:55:51.960Z,100693.28
2022-10-02T11:58:36.767Z,100696.34
2022-10-02T12:01:18.078Z,100690.22
2022-10-02T12:04:24.027Z,100697.34
2022-10-02T12:07:10.625Z,100695.81
2022-10-02T12:09:54.626Z,100685.34
2022-10-02T12:12:37.761Z,100693.88
2022-10-02T12:15:15.227Z,100695.31
2022-10-02T12:18:20.886Z,100687.78
2022-10-02T12:21:27.756Z,100689.53
2022-10-02T12:24:18.845Z,100682.81
2022-10-02T12:27:00.139Z,100676.81
2022-10-02T12:29:50.489Z,100692.13
2022-10-02T12:32:49.721Z,100681.09
2022-10-02T12:35:31.370Z,100684.03
2022-10-02T12:38:16.170Z,100675.97
2022-10-02T12:40:53.852Z,100667.44
2022-10-02T12:43:53.802Z,100677.44
2022-10-02T12:46:48.731Z,100675.75
2022-10-02T12:49:45.560Z,100670.78
2022-10-02T12:52:49.955Z,100670.28
2022-10-02T12:55:55.177Z,100666.63
2022-10-02T12:58:34.278Z,100668.41
2022-10-02T13:01:43.126Z,100670.31
2022-10-02T13:04:39.075Z,100676.00
2022-10-02T13:07:38.824Z,100673.50
2022-10-02T13:10:17.449Z,100676.97
2022-10-02T13:13:03.233Z,100676.13
2022-10-02T13:15:42.972Z,100671.97
2022-10-02T13:18:43.706Z,100667.81
2022-10-02T13:21:19.351Z,100669.34
2022-10-02T13:23:59.271Z,100674.69
2022-10-02T13:26:34.634Z,100672.56
2022-10-02T13:29:19.435Z,100659.75
2022-10-02T13:32:00.643Z,100670.09
2022-10-02T13:34:58.678Z,100677.09
2022-10-02T13:37:40.773Z,100682.66
2022-10-02T13:40:23.324Z,100672.22
2022-10-02T13:43:05.957Z,100683.03
2022-10-02T13:45:42.195Z,100679.59
2022-10-02T13:48:23.078Z,100677.69
2022-10-02T13:50:58.370Z,100683.03
2022-10-02T13:54:03.946Z,100684.94
2022-10-02T13:56:47.584Z,100691.34
2022-10-02T13:59:29.656Z,100699.06
2022-10-02T14:02:14.043Z,100687.28
2022-10-02T14:04:56.392Z,100680.16
2022-10-02T14:07:38.531Z,100680.75
2022-10-02T14:10:16.946Z,100672.94
2022-10-02T14:13:00.951Z,100658.16
2022-10-02T14:15:38.610Z,100668.00
2022-10-02T14:18:26.287Z,100672.50
2022-10-02T14:21:04.903Z,100658.84
2022-10-02T14:23:47.862Z,100670.31
2022-10-02T14:26:27.592Z,100666.97
2022-10-02T14:29:27.322Z,100662.78
2022-10-02T14:32:18.507Z,100691.13
2022-10-02T14:35:12.125Z,100681.09
2022-10-02T14:38:13.858Z,100676.09
2022-10-02T14:40:52.414Z,100682.84
2022-10-02T14:43:46.692Z,100685.53
2022-10-02T14:46:25.889Z,100680.16
2022-10-02T14:49:20.484Z,100679.78
2022-10-02T14:52:23.866Z,100688.97
2022-10-02T14:55:15.322Z,100696.09
2022-10-02T14:57:58.308Z,100694.19
2022-10-02T15:00:29.796Z,100700.13
2022-10-02T15:03:36.313Z,100702.50
2022-10-02T15:06:21.842Z,100700.84
2022-10-02T15:08:53.516Z,100705.13
2022-10-02T15:11:41.125Z,100696.94
2022-10-02T15:14:14.016Z,100701.34
2022-10-02T15:17:04.618Z,100706.66
2022-10-02T15:19:40.157Z,100711.09
2022-10-02T15:22:19.291Z,100699.31
2022-10-02T15:24:50.836Z,100698.72
2022-10-02T15:27:24.568Z,100706.31
2022-10-02T15:30:13.199Z,100695.63
2022-10-02T15:33:02.555Z,100706.19
2022-10-02T15:35:46.439Z,100704.31
2022-10-02T15:38:32.038Z,100697.16
2022-10-02T15:41:29.643Z,100702.25
2022-10-02T15:44:06.907Z,100701.66
2022-10-02T15:46:48.874Z,100704.06
2022-10-02T15:49:27.698Z,100705.59
2022-10-02T15:52:09.827Z,100694.06
2022-10-02T15:54:50.707Z,100705.72
2022-10-02T15:57:44.787Z,100707.56
2022-10-02T16:00:17.153Z,100707.34
2022-10-02T16:03:13.366Z,100717.78
2022-10-02T16:05:53.327Z,100707.34
2022-10-02T16:08:46.733Z,100717.50
2022-10-02T16:11:34.791Z,100716.44
2022-10-02T16:14:10.403Z,100724.84
2022-10-02T16:17:14.468Z,100730.31
2022-10-02T16:20:03.408Z,100726.97
2022-10-02T16:22:45.178Z,100737.53
2022-10-02T16:25:32.175Z,100748.97
2022-10-02T16:28:20.399Z,100751.94
2022-10-02T16:31:09.441Z,100752.25
2022-10-02T16:33:49.890Z,100753.91
2022-10-02T16:36:34.522Z,100748.41
2022-10-02T16:39:17.066Z,100763.94
2022-10-02T16:41:59.911Z,100772.56
2022-10-02T16:44:50.335Z,100763.03
2022-10-02T16:47:28.648Z,100772.06
2022-10-02T16:50:14.649Z,100790.31
2022-10-02T16:52:47.602Z,100781.16
2022-10-02T16:55:22.032Z,100792.81
2022-10-02T16:58:10.989Z,100778.50
2022-10-02T17:00:50.620Z,100798.66
2022-10-02T17:03:29.325Z,100795.75
2022-10-02T17:06:04.433Z,100801.28
2022-10-02T17:08:39.856Z,100808.94
2022-10-02T17:11:18.546Z,100820.91
2022-10-02T17:13:58.946Z,100786.31
2022-10-02T17:16:34.012Z,100823.75
2022-10-02T17:19:17.759Z,100826.53
2022-10-02T17:21:53.478Z,100827.44
2022-10-02T17:24:32.644Z,100837.72
2022-10-02T17:27:14.046Z,100841.94
2022-10-02T17:29:51.535Z,100836.16
2022-10-02T17:32:35.548Z,100849.34
2022-10-02T17:35:03.523Z,100850.78
2022-10-02T17:37:56.964Z,100843.78
2022-10-02T17:40:29.294Z,100853.44
2022-10-02T17:43:11.641Z,100860.63
2022-10-02T17:45:48.233Z,100864.75
2022-10-02T17:48:32.214Z,100862.72
2022-10-02T17:51:47.064Z,100875.97
2022-10-02T17:54:36.351Z,100879.38
2022-10-02T17:57:25.271Z,100896.13
2022-10-02T18:00:11.278Z,100900.78
2022-10-02T18:03:16.598Z,100900.00
2022-10-02T18:05:54.657Z,100898.16
2022-10-02T18:08:51.067Z,100897.31
2022-10-02T18:11:41.370Z,100911.13
2022-10-02T18:14:26.414Z,100915.41
2022-10-02T18:17:14.187Z,100919.81
2022-10-02T18:19:56.277Z,100930.69
2022-10-02T18:22:49.892Z,100939.03
2022-10-02T18:25:30.869Z,100930.25
2022-10-02T18:28:14.320Z,100938.19
2022-10-02T18:30:50.057Z,100943.44
2022-10-02T18:33:33.908Z,100930.66
2022-10-02T18:36:13.856Z,100942.19
2022-10-02T18:38:56.633Z,100946.56
2022-10-02T18:41:41.124Z,100957.03
2022-10-02T18:44:21.891Z,100969.34
2022-10-02T18:46:59.233Z,100964.34
2022-10-02T18:49:39.614Z,100966.03
2022-10-02T18:52:26.559Z,100959.34
2022-10-02T18:55:09.090Z,100949.31
2022-10-02T18:57:48.412Z,100961.84
2022-10-02T19:00:21.449Z,100967.31
2022-10-02T19:03:15.990Z,100964.38
2022-10-02T19:05:52.849Z,100972.31
2022-10-02T19:08:26.219Z,100967.31
2022-10-02T19:10:54.749Z,100967.09
2022-10-02T19:13:25.580Z,100981.94
2022-10-02T19:15:58.230Z,100990.28
2022-10-02T19:18:27.932Z,100999.09
2022-10-02T19:21:02.882Z,100999.94
2022-10-02T19:23:35.761Z,101002.00
2022-10-02T19:26:07.901Z,100995.50
2022-10-02T19:28:46.625Z,100999.91
2022-10-02T19:31:22.564Z,101011.59
2022-10-02T19:33:54.797Z,101022.28
2022-10-02T19:36:27.350Z,101021.22
2022-10-02T19:39:01.341Z,101021.66
2022-10-02T19:41:35.912Z,101011.81
2022-10-02T19:44:12.178Z,101039.44
2022-10-02T19:46:45.483Z,101039.00
2022-10-02T19:49:20.251Z,101037.97
2022-10-02T19:51:48.718Z,101030.63
2022-10-02T19:54:21.191Z,101037.47
2022-10-02T19:56:51.646Z,101040.16
2022-10-02T19:59:21.728Z,101047.28
2022-10-02T20:01:53.129Z,101051.69
2022-10-02T20:04:22.702Z,101051.44
2022-10-02T20:06:53.854Z,101060.81
2022-10-02T20:09:28.416Z,101058.47
2022-10-02T20:12:01.098Z,101064.09
2022-10-02T20:14:34.005Z,101071.84
2022-10-02T20:17:08.956Z,101061.94
2022-10-02T20:19:42.232Z,101075.69
2022-10-02T20:22:19.605Z,101071.75
2022-10-02T20:24:52.191Z,101076.00
2022-10-02T20:27:26.829Z,101080.84
2022-10-02T20:30:00.845Z,101074.81
2022-10-02T20:32:35.999Z,101076.91
2022-10-02T20:35:11.191Z,101085.59
2022-10-02T20:37:41.361Z,101091.06
2022-10-02T20:40:16.559Z,101088.72
2022-10-02T20:42:50.252Z,101092.78
2022-10-02T20:45:18.722Z,101087.75
2022-10-02T20:48:22.380Z,101093.56
2022-10-02T20:51:01.891Z,101096.31
2022-10-02T20:54:08.601Z,101106.38
2022-10-02T20:57:03.677Z,101105.31
2022-10-02T21:00:05.505Z,101119.38
2022-10-02T21:03:23.180Z,101107.25
2022-10-02T21:06:08.382Z,101115.00
2022-10-02T21:09:14.959Z,101114.56
2022-10-02T21:12:10.615Z,101128.84
2022-10-02T21:15:03.719Z,101119.84
2022-10-02T21:17:59.000Z,101126.13
2022-10-02T21:20:51.805Z,101120.03
2022-10-02T21:23:55.073Z,101144.28
2022-10-02T21:26:49.566Z,101135.22
2022-10-02T21:29:53.930Z,101144.50
2022-10-02T21:32:40.890Z,101156.19
2022-10-02T21:35:16.427Z,101159.09
2022-10-02T21:38:01.918Z,101156.75
2022-10-02T21:41:05.885Z,101159.66
2022-10-02T21:44:05.457Z,101156.13
2022-10-02T21:46:54.768Z,101157.16
2022-10-02T21:49:55.328Z,101156.56
2022-10-02T21:53:01.575Z,101163.22
2022-10-02T21:56:20.049Z,101169.69
2022-10-02T21:59:22.250Z,101178.94
2022-10-02T22:02:18.073Z,101175.31
2022-10-02T22:05:27.078Z,101188.91
2022-10-02T22:08:08.079Z,101187.44
2022-10-02T22:10:47.534Z,101191.84
2022-10-02T22:13:25.239Z,101201.50
2022-10-02T22:16:09.783Z,101202.63
2022-10-02T22:18:48.463Z,101203.16
2022-10-02T22:21:36.123Z,101213.59
2022-10-02T22:24:17.178Z,101218.97
2022-10-02T22:27:17.372Z,101218.84
2022-10-02T22:29:47.425Z,101226.22
2022-10-02T22:32:50.807Z,101218.53
2022-10-02T22:35:29.838Z,101233.75
2022-10-02T22:38:12.422Z,101235.56
2022-10-02T22:40:46.874Z,101235.25
2022-10-02T22:43:24.954Z,101244.41
2022-10-02T22:45:58.614Z,101246.09
2022-10-02T22:48:38.600Z,101248.91
2022-10-02T22:51:17.253Z,101249.69
2022-10-02T22:53:50.810Z,101250.88
2022-10-02T22:56:29.708Z,101254.31
2022-10-02T22:59:07.603Z,101263.94
2022-10-02T23:01:45.459Z,101266.13
2022-10-02T23:04:26.633Z,101261.41
2022-10-02T23:07:02.175Z,101255.13
2022-10-02T23:09:41.443Z,101255.03
2022-10-02T23:12:16.228Z,101274.38
2022-10-02T23:14:55.107Z,101267.75
2022-10-02T23:17:27.454Z,101265.94
2022-10-02T23:20:02.009Z,101263.84
2022-10-02T23:22:34.596Z,101261.34
2022-10-02T23:25:14.953Z,101277.91
2022-10-02T23:27:49.316Z,101278.56
2022-10-02T23:30:20.549Z,101284.75
2022-10-02T23:32:53.185Z,101273.63
2022-10-02T23:35:28.420Z,101287.28
2022-10-02T23:38:02.442Z,101279.28
2022-10-02T23:40:52.544Z,101287.28
2022-10-02T23:43:27.418Z,101290.91
2022-10-02T23:46:02.366Z,101282.97
2022-10-02T23:48:32.410Z,101299.81
2022-10-02T23:51:13.972Z,101293.66
2022-10-02T23:54:14.027Z,101291.47
2022-10-02T23:57:08.835Z,101298.88
